Airfield :
LOGIN :

Register | Disclaimer

   EN    FR    IT 

 










Legend :    VFR   Marginal VFR   IFR   Intensive IFR   Very Intensive IFR
Visi :
Ceiling :
>= 8 km
>= 3000ft
5 to 8 km
1000 to 3000 ft
1500m to 5 km
500 to 1000 ft
800 to 1500m
200 to 500 ft
< 800m
< 200 ft
Symbols :   Thunderstorms  Fog  Heavy snow  Heavy precipitations  Wind > 20 kt
SIGMETs :     Misc.  Thunderstorms  Icing  Turbulence  Mountain Waves  Volcanic Ashes






- Airport Elevation : 65 ft
- IATA code : PIK


EGPK - Glasgow Prestwick

CURRENT METAR :
  • 291250Z 18014KT 150V210 9999 FEW035 18/10 Q1007

EXPIRED METARs :
  • 291220Z 19012KT 9999 FEW033 SCT047 18/11 Q1007
  • 291150Z 18010KT 9999 SCT036 BKN043 17/10 Q1007
  • 291120Z 19013KT 9999 FEW033 SCT048 17/10 Q1006
  • 291050Z 19014KT 9999 SCT024 17/10 Q1006
  • 291020Z 18015KT 9999 SCT024 18/11 Q1006

TAF TAF EGPK
Valid from the 29 at 12:00 until the 30 at 12:00 UTC


291054Z 2912/3012 18010KT 9999 SCT025
TEMPO 2912/2919 6000 SHRA
PROB30
TEMPO 2912/2914 4000 +SHRA BKN014CB
BECMG 2921/2924 VRB03KT
PROB30
TEMPO 3000/3012 6000 SHRA BKN014
BECMG 3010/3012 26010KT



MET'MAP, your aeronautical weather chart ! - Copyright ORBIFLY December 2007 - Disclaimer

ORBIFLY MET'MAP TEAM :

Programming & Development : Alexandra Zaïnal
Original concept : Baudouin d'Aumeries
Technical & hardware support : Manuel Goepfert
Assistance : Marc-Olivier Méhu




SOURCES & CREDITS :

   NOAA